Time;durP1;ratioP1;P1;durP2;ratioP2;P2;SDS_P1;SDS_P2;PMS_P1;PMS_P2;Temp;Humidity;BMP_temperature;BMP_pressure;BME280_temperature;BME280_humidity;BME280_pressure;Samples;Min_cycle;Max_cycle;Signal;HPM_P1;HPM_P2
2022/09/10 00:00:42;;;;;;;0.82;0.77;;;16.80;99.90;;;;;;5070965;28;20029;-73
2022/09/10 00:03:09;;;;;;;3.50;1.20;;;16.80;99.90;;;;;;5071036;28;20032;-73
2022/09/10 00:05:40;;;;;;;1.48;0.90;;;16.80;99.90;;;;;;5070503;28;20474;-73
2022/09/10 00:08:07;;;;;;;1.35;1.00;;;16.80;99.90;;;;;;5072750;28;20025;-72
2022/09/10 00:10:44;;;;;;;2.40;0.70;;;16.80;99.90;;;;;;5074621;28;20056;-74
2022/09/10 00:13:10;;;;;;;1.50;0.90;;;16.80;99.90;;;;;;5075486;28;20090;-74
2022/09/10 00:15:45;;;;;;;1.42;0.77;;;16.80;99.90;;;;;;5074922;28;20033;-73
2022/09/10 00:18:14;;;;;;;1.73;0.75;;;16.90;99.90;;;;;;5074838;28;20357;-74
2022/09/10 00:20:49;;;;;;;2.00;1.02;;;16.80;99.90;;;;;;5074988;28;20031;-72
2022/09/10 00:23:16;;;;;;;1.67;1.00;;;16.90;99.90;;;;;;5074850;28;20461;-74
2022/09/10 00:25:42;;;;;;;2.95;0.93;;;16.90;99.90;;;;;;5074572;28;20026;-73
2022/09/10 00:28:08;;;;;;;1.67;0.90;;;16.90;99.90;;;;;;5075067;28;20034;-73
2022/09/10 00:30:54;;;;;;;2.78;0.80;;;16.90;99.90;;;;;;5074224;28;20361;-73
2022/09/10 00:33:21;;;;;;;2.13;0.65;;;16.90;99.90;;;;;;5094301;28;20472;-72
2022/09/10 00:35:48;;;;;;;0.55;0.55;;;16.90;99.90;;;;;;5094223;28;20031;-73
2022/09/10 00:38:17;;;;;;;1.65;0.73;;;16.90;99.90;;;;;;5094782;28;20481;-74
2022/09/10 00:40:43;;;;;;;0.52;0.52;;;16.90;99.90;;;;;;5094499;28;20028;-74
2022/09/10 00:43:13;;;;;;;1.65;0.70;;;16.90;99.90;;;;;;5094785;28;20467;-74
2022/09/10 00:45:40;;;;;;;1.58;0.80;;;16.90;99.90;;;;;;5094662;28;20032;-73
2022/09/10 00:48:16;;;;;;;0.80;0.80;;;16.90;99.90;;;;;;5076840;28;20123;-73
2022/09/10 00:50:45;;;;;;;0.65;0.65;;;17.00;99.90;;;;;;5094798;28;20024;-73
2022/09/10 00:53:16;;;;;;;1.52;0.73;;;16.90;99.90;;;;;;5095134;28;20028;-74
2022/09/10 00:55:46;;;;;;;2.22;0.80;;;16.90;99.90;;;;;;5094608;28;20020;-74
2022/09/10 00:58:14;;;;;;;2.55;0.93;;;16.90;99.90;;;;;;5095094;28;20067;-74
2022/09/10 01:00:40;;;;;;;3.20;1.08;;;16.90;99.90;;;;;;5094615;28;20388;-74
2022/09/10 01:03:10;;;;;;;8.23;0.82;;;16.90;99.90;;;;;;5095015;28;20020;-73
2022/09/10 01:05:39;;;;;;;1.13;0.80;;;16.80;99.90;;;;;;5094620;28;20491;-73
2022/09/10 01:08:05;;;;;;;0.98;0.80;;;16.80;99.90;;;;;;5095013;28;20028;-74
2022/09/10 01:10:42;;;;;;;3.20;1.10;;;16.70;99.90;;;;;;5076083;28;20485;-73
2022/09/10 01:13:40;;;;;;;3.95;1.33;;;16.70;99.90;;;;;;5095116;28;20500;-74
2022/09/10 01:16:18;;;;;;;2.05;0.93;;;16.70;99.90;;;;;;5060261;28;20498;-73
2022/09/10 01:18:58;;;;;;;0.98;0.88;;;16.70;99.90;;;;;;5093329;28;20043;-75
2022/09/10 01:21:53;;;;;;;1.05;0.70;;;16.60;99.90;;;;;;5094107;28;20028;-73
2022/09/10 01:24:41;;;;;;;1.35;0.70;;;16.60;99.90;;;;;;5094289;28;20484;-73
2022/09/10 01:27:34;;;;;;;1.38;0.80;;;16.60;99.90;;;;;;5075955;28;20124;-73
2022/09/10 01:30:06;;;;;;;2.55;1.00;;;16.50;99.90;;;;;;5094318;28;20024;-73
2022/09/10 01:32:34;;;;;;;1.52;0.80;;;16.50;99.90;;;;;;5077689;28;20540;-76
2022/09/10 01:35:18;;;;;;;0.60;0.60;;;16.50;99.90;;;;;;5074188;28;20025;-73
2022/09/10 01:37:50;;;;;;;1.63;0.60;;;16.40;99.90;;;;;;5073146;28;20470;-74
2022/09/10 01:40:17;;;;;;;1.40;0.70;;;16.40;99.90;;;;;;5073620;28;20206;-73
2022/09/10 01:42:44;;;;;;;0.75;0.70;;;16.30;99.90;;;;;;5073271;28;20084;-73
2022/09/10 01:45:13;;;;;;;2.85;0.88;;;16.30;99.90;;;;;;5074399;28;20029;-74
2022/09/10 01:48:05;;;;;;;0.73;0.73;;;16.30;99.90;;;;;;5073820;28;20307;-73
2022/09/10 01:51:03;;;;;;;1.50;0.80;;;16.30;99.90;;;;;;5073675;28;20060;-74
2022/09/10 01:54:03;;;;;;;1.58;0.75;;;16.30;99.90;;;;;;5067411;28;20072;-72
2022/09/10 01:56:36;;;;;;;1.70;0.75;;;16.30;99.90;;;;;;5073572;28;20051;-73
2022/09/10 01:59:25;;;;;;;2.30;0.80;;;16.30;99.90;;;;;;5073344;28;20068;-75
2022/09/10 02:02:02;;;;;;;1.38;0.82;;;16.30;99.90;;;;;;5073046;28;20063;-73
2022/09/10 02:04:29;;;;;;;0.95;0.85;;;16.30;99.90;;;;;;5073505;28;20024;-72
2022/09/10 02:06:56;;;;;;;2.78;0.70;;;16.30;99.90;;;;;;5073048;28;20021;-74
2022/09/10 02:09:22;;;;;;;1.30;0.93;;;16.30;99.90;;;;;;5055323;28;20028;-74
2022/09/10 02:11:53;;;;;;;1.02;0.70;;;16.30;99.90;;;;;;5072528;28;20024;-73
2022/09/10 02:14:20;;;;;;;;;;;16.20;99.90;;;;;;5073871;28;20032;-75
2022/09/10 02:16:58;;;;;;;1.52;0.93;;;16.20;99.90;;;;;;5072770;28;19904;-73
2022/09/10 02:19:27;;;;;;;2.03;1.00;;;16.20;99.90;;;;;;5073063;28;20036;-73
2022/09/10 02:21:55;;;;;;;0.65;0.60;;;16.20;99.90;;;;;;5072528;28;20029;-73
2022/09/10 02:24:21;;;;;;;2.15;1.02;;;16.20;99.90;;;;;;5072820;28;20484;-73
2022/09/10 02:26:48;;;;;;;1.25;0.90;;;16.20;99.90;;;;;;5072129;28;20350;-72
2022/09/10 02:29:15;;;;;;;1.10;0.90;;;16.20;99.90;;;;;;5072458;28;20032;-73
2022/09/10 02:31:42;;;;;;;1.30;1.02;;;16.20;99.90;;;;;;5071557;28;20045;-73
2022/09/10 02:34:09;;;;;;;1.35;1.10;;;16.20;99.90;;;;;;5072524;28;20035;-74
2022/09/10 02:36:35;;;;;;;1.55;0.90;;;16.20;99.90;;;;;;5072719;28;20028;-73
2022/09/10 02:39:03;;;;;;;4.63;1.17;;;16.20;99.90;;;;;;5072081;28;20529;-72
2022/09/10 02:41:32;;;;;;;1.58;1.23;;;16.30;99.90;;;;;;5072337;28;20093;-72
2022/09/10 02:44:00;;;;;;;2.20;1.30;;;16.20;99.90;;;;;;5072286;28;20070;-73
2022/09/10 02:46:27;;;;;;;2.40;1.55;;;16.30;99.90;;;;;;5072225;28;20131;-73
2022/09/10 02:48:53;;;;;;;3.92;1.83;;;16.30;99.90;;;;;;5071995;28;20033;-73
2022/09/10 02:51:20;;;;;;;1.98;1.48;;;16.30;99.90;;;;;;5072336;28;20025;-73
2022/09/10 02:53:45;;;;;;;2.60;1.63;;;16.30;99.90;;;;;;5071835;28;20021;-74
2022/09/10 02:56:12;;;;;;;3.42;2.10;;;16.30;99.90;;;;;;5072534;28;20024;-74
2022/09/10 02:58:38;;;;;;;3.15;1.52;;;16.40;99.90;;;;;;5071755;28;20043;-77
2022/09/10 03:01:05;;;;;;;2.55;1.77;;;16.40;99.90;;;;;;5072393;28;20025;-73
2022/09/10 03:03:32;;;;;;;4.63;2.53;;;16.40;99.90;;;;;;5072154;28;20197;-73
2022/09/10 03:05:57;;;;;;;4.80;2.50;;;16.40;99.90;;;;;;5071667;28;20029;-72
2022/09/10 03:08:23;;;;;;;3.15;2.33;;;16.40;99.90;;;;;;5072131;28;20517;-73
2022/09/10 03:10:49;;;;;;;4.05;1.88;;;16.40;99.90;;;;;;5071236;28;20048;-72
2022/09/10 03:13:14;;;;;;;4.07;2.65;;;16.40;99.90;;;;;;5071784;28;20024;-73
2022/09/10 03:15:42;;;;;;;4.32;2.55;;;16.40;99.90;;;;;;5071242;28;20519;-75
2022/09/10 03:18:08;;;;;;;4.65;2.22;;;16.40;99.90;;;;;;5071547;28;20036;-72
2022/09/10 03:20:35;;;;;;;5.10;2.30;;;16.40;99.90;;;;;;5071356;28;20461;-73
2022/09/10 03:23:02;;;;;;;5.57;2.30;;;16.30;99.90;;;;;;5071014;28;20070;-73
2022/09/10 03:25:28;;;;;;;5.20;2.40;;;16.30;99.90;;;;;;5071233;28;20438;-73
2022/09/10 03:27:54;;;;;;;7.05;2.10;;;16.30;99.90;;;;;;5071013;28;20025;-73
2022/09/10 03:30:20;;;;;;;4.43;2.40;;;16.30;99.90;;;;;;5071719;28;20074;-73
2022/09/10 03:32:47;;;;;;;5.32;2.85;;;16.30;99.90;;;;;;5071176;28;20436;-73
2022/09/10 03:35:12;;;;;;;4.03;2.50;;;16.30;99.90;;;;;;5071622;28;20115;-71
2022/09/10 03:37:38;;;;;;;5.93;2.78;;;16.30;99.90;;;;;;5071457;28;20576;-73
2022/09/10 03:40:06;;;;;;;4.35;2.60;;;16.30;99.90;;;;;;5071064;28;20354;-72
2022/09/10 03:42:32;;;;;;;5.05;3.13;;;16.20;99.90;;;;;;5070303;28;20066;-73
2022/09/10 03:44:57;;;;;;;6.32;2.95;;;16.30;99.90;;;;;;5071059;28;20412;-74
2022/09/10 03:47:23;;;;;;;5.03;2.90;;;16.20;99.90;;;;;;5053628;28;20028;-72
2022/09/10 03:49:49;;;;;;;7.47;3.40;;;16.20;99.90;;;;;;5052886;28;20420;-73
2022/09/10 03:52:16;;;;;;;4.22;2.78;;;16.20;99.90;;;;;;5071592;28;20021;-72
2022/09/10 03:54:41;;;;;;;5.82;2.83;;;16.20;99.90;;;;;;5071491;28;20036;-72
2022/09/10 03:57:07;;;;;;;6.47;3.28;;;16.20;99.90;;;;;;5071164;28;20037;-72
2022/09/10 03:59:34;;;;;;;5.78;3.08;;;16.20;99.90;;;;;;5070793;28;20040;-72
2022/09/10 04:02:00;;;;;;;4.68;2.92;;;16.20;99.90;;;;;;5070761;28;20024;-72
2022/09/10 04:04:26;;;;;;;4.80;2.95;;;16.20;99.90;;;;;;5071201;28;20028;-72
2022/09/10 04:06:52;;;;;;;5.88;2.78;;;16.20;99.90;;;;;;5052883;28;20028;-73
2022/09/10 04:09:18;;;;;;;7.85;3.28;;;16.20;99.90;;;;;;5071272;28;20032;-72
2022/09/10 04:11:44;;;;;;;7.05;3.50;;;16.20;99.90;;;;;;5071350;28;20025;-72
2022/09/10 04:14:09;;;;;;;4.40;3.00;;;16.20;99.90;;;;;;5052727;28;20464;-72
2022/09/10 04:16:36;;;;;;;5.78;2.75;;;16.20;99.90;;;;;;5071160;28;20028;-72
2022/09/10 04:19:01;;;;;;;5.13;2.80;;;16.20;99.90;;;;;;5070609;28;20037;-73
2022/09/10 04:21:27;;;;;;;5.20;3.42;;;16.20;99.90;;;;;;5070822;28;20039;-72
2022/09/10 04:23:58;;;;;;;5.28;3.03;;;16.20;99.90;;;;;;5070381;28;20025;-72
2022/09/10 04:26:24;;;;;;;5.03;2.45;;;16.20;99.90;;;;;;5061929;28;20035;-73
2022/09/10 04:28:49;;;;;;;10.18;3.50;;;16.20;99.90;;;;;;5070275;28;20107;-73
2022/09/10 04:31:15;;;;;;;4.40;2.58;;;16.20;99.90;;;;;;5076092;28;20039;-72
2022/09/10 04:33:41;;;;;;;6.05;3.00;;;16.20;99.90;;;;;;5090807;28;20443;-73
2022/09/10 04:36:07;;;;;;;5.80;2.80;;;16.20;99.90;;;;;;5090431;28;20036;-72
2022/09/10 04:38:32;;;;;;;4.85;2.90;;;16.20;99.90;;;;;;5091129;28;20055;-73
2022/09/10 04:41:02;;;;;;;5.28;2.60;;;16.20;99.90;;;;;;5090800;28;20372;-73
2022/09/10 04:43:27;;;;;;;6.15;2.88;;;16.20;99.90;;;;;;5091335;28;20099;-73
2022/09/10 04:45:54;;;;;;;6.50;3.17;;;16.20;99.90;;;;;;5090397;28;20119;-73
2022/09/10 04:48:21;;;;;;;5.88;3.22;;;16.20;99.90;;;;;;5090804;28;20077;-72
2022/09/10 04:50:47;;;;;;;4.75;2.47;;;16.20;99.90;;;;;;5090713;28;20392;-72
2022/09/10 04:53:13;;;;;;;4.65;2.35;;;16.20;99.90;;;;;;5090989;28;20027;-72
2022/09/10 04:55:41;;;;;;;6.15;2.88;;;16.20;99.90;;;;;;5095401;28;20035;-73
2022/09/10 04:58:08;;;;;;;6.93;2.60;;;16.20;99.90;;;;;;5094177;28;20040;-73
2022/09/10 05:00:33;;;;;;;3.15;2.15;;;16.30;99.90;;;;;;5074677;28;20115;-73
2022/09/10 05:02:59;;;;;;;3.38;2.00;;;16.30;99.90;;;;;;5093971;28;20099;-73
2022/09/10 05:05:25;;;;;;;3.72;1.88;;;16.30;99.90;;;;;;5094459;28;20055;-73
2022/09/10 05:07:52;;;;;;;4.63;2.25;;;16.30;99.90;;;;;;5094392;28;20020;-76
2022/09/10 05:10:20;;;;;;;2.67;1.90;;;16.30;99.90;;;;;;5094599;28;20024;-73
2022/09/10 05:12:46;;;;;;;2.70;1.80;;;16.30;99.90;;;;;;5094615;28;20054;-73
2022/09/10 05:15:12;;;;;;;2.65;1.67;;;16.30;99.90;;;;;;5093871;28;20107;-73
2022/09/10 05:17:38;;;;;;;1.90;1.48;;;16.30;99.90;;;;;;5094424;28;20430;-73
2022/09/10 05:20:06;;;;;;;3.45;2.60;;;16.30;99.90;;;;;;5093974;28;20138;-73
2022/09/10 05:22:33;;;;;;;2.38;1.63;;;16.30;99.90;;;;;;5094547;28;20036;-73
2022/09/10 05:24:59;;;;;;;2.63;1.38;;;16.20;99.90;;;;;;5093963;28;20110;-73
2022/09/10 05:27:25;;;;;;;1.95;1.73;;;16.30;99.90;;;;;;5076170;28;20031;-72
2022/09/10 05:29:51;;;;;;;3.22;1.83;;;16.20;99.90;;;;;;5094132;28;20024;-75
2022/09/10 05:32:17;;;;;;;4.60;1.70;;;16.20;99.90;;;;;;5094635;28;20059;-72
2022/09/10 05:34:47;;;;;;;3.60;1.58;;;16.20;99.90;;;;;;5094468;28;20424;-73
2022/09/10 05:37:17;;;;;;;2.08;1.65;;;16.20;99.90;;;;;;5093760;28;20119;-73
2022/09/10 05:39:43;;;;;;;2.83;1.50;;;16.20;99.90;;;;;;5094281;28;20028;-71
2022/09/10 05:42:09;;;;;;;2.63;1.58;;;16.20;99.90;;;;;;5093714;28;20035;-72
2022/09/10 05:44:34;;;;;;;2.75;1.23;;;16.20;99.90;;;;;;5093288;28;20059;-70
2022/09/10 05:47:00;;;;;;;3.60;1.85;;;16.20;99.90;;;;;;5089236;28;20024;-72
2022/09/10 05:49:26;;;;;;;5.38;1.70;;;16.30;99.90;;;;;;5093735;28;20130;-69
2022/09/10 05:51:52;;;;;;;2.05;1.48;;;16.30;99.90;;;;;;5094013;28;20056;-72
2022/09/10 05:54:17;;;;;;;3.70;1.90;;;16.40;99.90;;;;;;5083545;28;20416;-72
2022/09/10 05:56:43;;;;;;;4.88;1.55;;;16.40;99.90;;;;;;5055618;28;20032;-74
2022/09/10 05:59:09;;;;;;;2.45;1.55;;;16.40;99.90;;;;;;5073058;28;20028;-74
2022/09/10 06:01:35;;;;;;;2.70;1.60;;;16.40;99.90;;;;;;5073391;28;20021;-74
2022/09/10 06:04:02;;;;;;;1.10;1.00;;;16.40;99.90;;;;;;5072901;28;20381;-74
2022/09/10 06:06:28;;;;;;;2.28;1.30;;;16.40;99.90;;;;;;5072422;28;20025;-75
2022/09/10 06:08:54;;;;;;;2.38;1.40;;;16.40;99.90;;;;;;5078770;28;20032;-76
2022/09/10 06:11:20;;;;;;;2.03;1.60;;;16.40;99.90;;;;;;5093081;28;20115;-75
2022/09/10 06:13:46;;;;;;;3.05;1.38;;;16.50;99.90;;;;;;5093468;28;20071;-74
2022/09/10 06:16:12;;;;;;;2.63;1.45;;;16.50;99.90;;;;;;5092742;28;20030;-75
2022/09/10 06:18:38;;;;;;;2.72;1.50;;;16.50;99.90;;;;;;5093536;28;20115;-74
2022/09/10 06:21:07;;;;;;;1.50;1.08;;;16.60;99.90;;;;;;5092789;28;20063;-74
2022/09/10 06:23:34;;;;;;;6.30;1.73;;;16.60;99.90;;;;;;5093273;28;20112;-74
2022/09/10 06:26:03;;;;;;;5.30;1.63;;;16.70;99.90;;;;;;5091612;28;20031;-75
2022/09/10 06:28:30;;;;;;;2.30;1.30;;;16.80;99.90;;;;;;5092925;28;20464;-74
2022/09/10 06:30:56;;;;;;;3.78;1.70;;;16.90;99.90;;;;;;5092547;28;21147;-76
2022/09/10 06:33:22;;;;;;;3.28;1.60;;;17.00;99.90;;;;;;5092693;28;20051;-75
2022/09/10 06:35:59;;;;;;;1.70;1.15;;;17.20;99.90;;;;;;5093179;28;20412;-74
2022/09/10 06:38:29;;;;;;;5.88;2.40;;;17.40;99.90;;;;;;5092628;28;20108;-74
2022/09/10 06:40:59;;;;;;;3.25;1.58;;;17.70;99.90;;;;;;5092783;28;20082;-74
2022/09/10 06:43:26;;;;;;;1.83;1.23;;;17.90;99.90;;;;;;5092788;28;20034;-75
2022/09/10 06:45:52;;;;;;;2.47;1.58;;;18.30;99.90;;;;;;5093256;28;20089;-74
2022/09/10 06:48:26;;;;;;;2.08;1.30;;;18.60;99.90;;;;;;5091709;28;20622;-74
2022/09/10 06:50:57;;;;;;;2.72;1.40;;;18.90;97.80;;;;;;5074962;28;20140;-74
2022/09/10 06:53:23;;;;;;;;;;;19.30;96.40;;;;;;5074972;28;20031;-74
2022/09/10 06:55:51;;;;;;;2.85;1.30;;;19.60;95.00;;;;;;5092891;28;19904;-74
2022/09/10 06:58:22;;;;;;;1.50;1.27;;;19.80;93.20;;;;;;5092130;28;20170;-75
2022/09/10 07:00:50;;;;;;;;;;;20.40;91.70;;;;;;5093187;28;20024;-75
2022/09/10 07:03:18;;;;;;;1.75;1.20;;;20.80;90.40;;;;;;5092089;28;19904;-75
2022/09/10 07:05:44;;;;;;;1.50;1.08;;;21.80;84.80;;;;;;5092813;28;20020;-74
2022/09/10 07:08:15;;;;;;;2.55;1.50;;;22.80;80.60;;;;;;5092234;28;20031;-74
2022/09/10 07:10:43;;;;;;;2.22;1.25;;;23.80;73.00;;;;;;5072523;28;20424;-74
2022/09/10 07:13:11;;;;;;;2.67;1.65;;;24.50;67.20;;;;;;5071895;28;20513;-74
2022/09/10 07:15:44;;;;;;;2.45;1.30;;;24.90;66.10;;;;;;5072409;28;20033;-75
2022/09/10 07:18:13;;;;;;;2.25;1.40;;;25.50;63.20;;;;;;5072025;28;20365;-75
2022/09/10 07:20:39;;;;;;;2.03;1.02;;;26.10;62.00;;;;;;5072560;28;20024;-74
2022/09/10 07:23:05;;;;;;;1.92;1.40;;;26.60;59.50;;;;;;5054008;28;20377;-75
2022/09/10 07:25:32;;;;;;;1.50;1.40;;;26.90;58.20;;;;;;5072309;28;20028;-75
2022/09/10 07:28:00;;;;;;;2.63;1.52;;;27.30;57.50;;;;;;5072231;28;20483;-74
2022/09/10 07:30:27;;;;;;;2.17;1.10;;;27.00;55.80;;;;;;5072105;28;20016;-74
2022/09/10 07:32:53;;;;;;;1.55;1.10;;;27.20;55.30;;;;;;5071833;28;20072;-74
2022/09/10 07:35:20;;;;;;;2.40;1.10;;;27.30;55.50;;;;;;5071845;28;20275;-75
2022/09/10 07:37:45;;;;;;;1.23;0.93;;;27.40;53.90;;;;;;5072065;28;20097;-74
2022/09/10 07:40:11;;;;;;;1.10;0.80;;;28.00;53.60;;;;;;5072062;28;20354;-75
2022/09/10 07:42:37;;;;;;;1.88;1.00;;;28.00;51.90;;;;;;5073517;28;20106;-74
2022/09/10 07:45:04;;;;;;;1.80;1.17;;;27.80;51.60;;;;;;5089709;28;20035;-76
2022/09/10 07:47:32;;;;;;;1.90;1.17;;;28.30;51.70;;;;;;5092429;28;20460;-74
2022/09/10 07:49:58;;;;;;;1.85;1.20;;;28.70;50.40;;;;;;5092762;28;20031;-75
2022/09/10 07:52:24;;;;;;;3.00;1.20;;;28.50;50.50;;;;;;5091705;28;20028;-75
2022/09/10 07:54:50;;;;;;;3.40;1.30;;;28.50;49.90;;;;;;5091999;28;20027;-75
2022/09/10 07:57:15;;;;;;;2.13;1.30;;;28.20;51.40;;;;;;5091228;28;20032;-76
2022/09/10 07:59:41;;;;;;;3.22;1.33;;;28.10;50.50;;;;;;5073592;28;20032;-75
2022/09/10 08:02:11;;;;;;;2.45;1.15;;;28.30;52.40;;;;;;5090683;28;20028;-76
2022/09/10 08:04:36;;;;;;;2.47;1.20;;;28.60;49.80;;;;;;5091576;28;20420;-76
2022/09/10 08:07:02;;;;;;;1.42;1.00;;;29.00;49.10;;;;;;5091281;28;20252;-77
2022/09/10 08:09:28;;;;;;;1.50;1.10;;;30.10;46.90;;;;;;5091333;28;20444;-76
2022/09/10 08:11:53;;;;;;;1.45;1.08;;;30.50;46.80;;;;;;5091757;28;20028;-75
2022/09/10 08:14:19;;;;;;;0.93;0.90;;;31.30;45.40;;;;;;5091181;28;20024;-76
2022/09/10 08:16:45;;;;;;;2.80;1.05;;;31.20;44.90;;;;;;5091658;28;20396;-75
2022/09/10 08:19:12;;;;;;;1.15;1.05;;;30.60;45.50;;;;;;5072647;28;20068;-75
2022/09/10 08:21:39;;;;;;;2.97;1.00;;;31.30;44.40;;;;;;5091610;28;20100;-74
2022/09/10 08:24:05;;;;;;;1.00;0.90;;;32.40;44.10;;;;;;5091390;28;20033;-76
2022/09/10 08:26:32;;;;;;;1.17;0.82;;;32.50;42.70;;;;;;5091637;28;20028;-75
2022/09/10 08:28:58;;;;;;;4.10;0.93;;;32.40;42.60;;;;;;5093104;28;20086;-76
2022/09/10 08:31:25;;;;;;;1.50;1.02;;;31.90;41.90;;;;;;5088259;28;20033;-75
2022/09/10 08:33:55;;;;;;;2.30;1.00;;;31.30;43.10;;;;;;5075763;28;20024;-75
2022/09/10 08:36:22;;;;;;;1.65;1.10;;;30.30;43.40;;;;;;5074610;28;20062;-75
2022/09/10 08:38:49;;;;;;;1.95;1.10;;;29.20;45.00;;;;;;5074908;28;20462;-75
2022/09/10 08:41:34;;;;;;;1.05;0.93;;;28.20;47.10;;;;;;5074607;28;20025;-75
2022/09/10 08:44:02;;;;;;;1.15;0.93;;;27.50;48.40;;;;;;5075130;28;20024;-76
2022/09/10 08:46:43;;;;;;;1.60;0.98;;;26.60;49.80;;;;;;5074089;28;20031;-76
2022/09/10 08:49:29;;;;;;;2.15;1.17;;;26.00;51.70;;;;;;5074615;28;20029;-76
2022/09/10 08:52:12;;;;;;;1.83;1.38;;;25.70;53.40;;;;;;5074946;28;20025;-76
2022/09/10 08:54:53;;;;;;;1.23;0.98;;;25.10;54.10;;;;;;5074760;28;20385;-76
2022/09/10 08:57:27;;;;;;;2.85;1.25;;;24.90;54.70;;;;;;5074453;28;20024;-75
2022/09/10 08:59:55;;;;;;;2.30;1.10;;;24.50;55.20;;;;;;5074827;28;20036;-75
2022/09/10 09:02:20;;;;;;;2.17;1.30;;;24.40;56.80;;;;;;5074344;28;20364;-76
2022/09/10 09:04:57;;;;;;;1.67;1.05;;;24.30;57.40;;;;;;5074897;28;20028;-75
2022/09/10 09:07:23;;;;;;;4.57;1.23;;;24.30;57.20;;;;;;5074352;28;20456;-76
2022/09/10 09:09:50;;;;;;;1.70;1.02;;;24.10;57.00;;;;;;5074663;28;20029;-76
2022/09/10 09:12:34;;;;;;;2.55;1.55;;;23.80;57.90;;;;;;5074370;28;20024;-75
2022/09/10 09:15:46;;;;;;;1.65;0.90;;;23.60;59.00;;;;;;5074660;28;20021;-76
2022/09/10 09:18:30;;;;;;;4.00;1.30;;;23.40;59.50;;;;;;5031686;28;20037;-76
2022/09/10 09:20:59;;;;;;;1.40;0.90;;;23.30;60.30;;;;;;5074140;28;20067;-76
2022/09/10 09:23:43;;;;;;;3.45;1.08;;;23.30;60.30;;;;;;5074254;28;20032;-76
2022/09/10 09:26:12;;;;;;;1.50;0.85;;;23.20;60.60;;;;;;5073997;28;20104;-77
2022/09/10 09:28:43;;;;;;;3.20;1.20;;;23.10;61.00;;;;;;5074426;28;20032;-76
2022/09/10 09:31:15;;;;;;;1.70;0.98;;;23.00;59.90;;;;;;5073844;28;20059;-76
2022/09/10 09:33:44;;;;;;;1.20;0.90;;;22.90;61.30;;;;;;5073996;28;20028;-75
2022/09/10 09:36:15;;;;;;;1.30;0.88;;;22.90;62.30;;;;;;5073730;28;20029;-75
2022/09/10 09:38:46;;;;;;;0.73;0.70;;;22.80;61.60;;;;;;5073773;28;20131;-76
2022/09/10 09:41:37;;;;;;;0.88;0.80;;;22.50;60.90;;;;;;5072380;28;20073;-76
2022/09/10 09:44:25;;;;;;;3.80;1.05;;;22.40;62.40;;;;;;5074165;28;20071;-75
2022/09/10 09:46:51;;;;;;;1.77;1.10;;;22.40;64.00;;;;;;5071493;28;20020;-75
2022/09/10 09:49:16;;;;;;;1.67;0.90;;;22.40;64.70;;;;;;5073309;28;20062;-76
2022/09/10 09:51:47;;;;;;;1.35;0.70;;;22.60;63.80;;;;;;5073436;28;20047;-77
2022/09/10 09:54:18;;;;;;;0.60;0.60;;;22.70;63.90;;;;;;5073010;28;20016;-76
2022/09/10 09:56:48;;;;;;;2.25;1.33;;;22.80;61.90;;;;;;5073430;28;20342;-76
2022/09/10 09:59:33;;;;;;;2.10;1.00;;;22.80;63.00;;;;;;5073220;28;20074;-77
2022/09/10 10:02:14;;;;;;;2.10;0.90;;;22.90;64.40;;;;;;5073719;28;20115;-76
2022/09/10 10:04:53;;;;;;;1.25;0.70;;;23.10;63.20;;;;;;5073683;28;20154;-76
2022/09/10 10:07:25;;;;;;;1.17;0.60;;;23.20;62.10;;;;;;5056518;28;20025;-76
2022/09/10 10:09:51;;;;;;;1.52;0.85;;;23.20;61.50;;;;;;5073200;28;20450;-75
2022/09/10 10:12:21;;;;;;;1.52;0.73;;;23.20;61.60;;;;;;5072828;28;20044;-74
2022/09/10 10:14:48;;;;;;;2.17;0.80;;;23.20;62.20;;;;;;5073023;28;20488;-76
2022/09/10 10:17:34;;;;;;;1.20;0.75;;;23.30;61.20;;;;;;5072502;28;20111;-77
2022/09/10 10:20:12;;;;;;;2.15;0.85;;;23.40;61.50;;;;;;5055302;28;20369;-77
2022/09/10 10:22:41;;;;;;;3.15;0.95;;;23.60;61.00;;;;;;5073054;28;20103;-76
2022/09/10 10:25:40;;;;;;;2.95;0.73;;;23.70;60.60;;;;;;5072932;28;20028;-76
2022/09/10 10:28:22;;;;;;;0.80;0.63;;;23.80;59.30;;;;;;5065617;28;20040;-76
2022/09/10 10:30:53;;;;;;;2.78;0.80;;;23.70;59.20;;;;;;5072650;28;20028;-74
2022/09/10 10:33:26;;;;;;;2.30;0.88;;;23.70;58.50;;;;;;5074431;28;20039;-76
2022/09/10 10:36:09;;;;;;;1.65;0.50;;;23.60;58.80;;;;;;5092906;28;20074;-76
2022/09/10 10:38:39;;;;;;;1.20;0.60;;;23.60;58.90;;;;;;5092504;28;20034;-76
2022/09/10 10:41:32;;;;;;;1.83;0.98;;;23.60;58.80;;;;;;5092774;28;20020;-77
2022/09/10 10:44:06;;;;;;;2.30;0.77;;;23.60;58.80;;;;;;5092974;28;20358;-75
2022/09/10 10:47:00;;;;;;;1.67;0.50;;;23.40;58.30;;;;;;5092130;28;20055;-76
2022/09/10 10:49:46;;;;;;;1.67;0.70;;;23.20;59.30;;;;;;5092602;28;20033;-75
2022/09/10 10:52:23;;;;;;;0.77;0.60;;;23.20;58.80;;;;;;5092479;28;20040;-76
2022/09/10 10:55:13;;;;;;;0.40;0.35;;;23.00;58.30;;;;;;5094038;28;20035;-76
2022/09/10 10:57:49;;;;;;;0.50;0.50;;;23.00;58.80;;;;;;5102016;28;20079;-76
2022/09/10 11:00:17;;;;;;;0.73;0.50;;;23.10;56.90;;;;;;5094138;28;20522;-77
2022/09/10 11:02:59;;;;;;;1.05;0.50;;;23.20;56.90;;;;;;5092802;28;20042;-77
2022/09/10 11:05:34;;;;;;;0.40;0.40;;;23.20;57.20;;;;;;5092233;28;20491;-77
2022/09/10 11:08:06;;;;;;;1.65;0.55;;;23.10;56.70;;;;;;5092292;28;20027;-77
2022/09/10 11:10:42;;;;;;;0.82;0.70;;;23.20;56.60;;;;;;5092207;28;20032;-76
2022/09/10 11:13:38;;;;;;;1.27;0.55;;;23.20;56.40;;;;;;5092409;28;20464;-76
2022/09/10 11:16:15;;;;;;;2.17;0.60;;;23.30;56.00;;;;;;5092219;28;20476;-77
2022/09/10 11:18:48;;;;;;;1.15;0.65;;;23.30;55.30;;;;;;5073748;28;20028;-76
2022/09/10 11:21:19;;;;;;;1.73;0.70;;;23.30;55.50;;;;;;5092498;28;20047;-76
2022/09/10 11:23:58;;;;;;;0.73;0.60;;;23.20;56.70;;;;;;5074141;28;20103;-76
2022/09/10 11:26:40;;;;;;;1.02;0.70;;;23.20;56.70;;;;;;5091664;28;20024;-75
2022/09/10 11:29:43;;;;;;;1.08;0.68;;;23.10;56.30;;;;;;5074144;28;20028;-76
2022/09/10 11:32:37;;;;;;;1.42;0.50;;;23.00;57.10;;;;;;5091951;28;20120;-76
2022/09/10 11:35:23;;;;;;;2.58;0.70;;;22.90;57.80;;;;;;5092171;28;20024;-76
2022/09/10 11:38:04;;;;;;;1.75;0.80;;;22.90;58.80;;;;;;5092051;28;20031;-78
2022/09/10 11:40:40;;;;;;;2.83;1.00;;;22.80;59.10;;;;;;5091385;28;20465;-76
2022/09/10 11:43:27;;;;;;;2.47;0.80;;;23.00;59.30;;;;;;5091785;28;20107;-76
2022/09/10 11:46:01;;;;;;;1.85;0.80;;;23.00;58.30;;;;;;5091578;28;20024;-75
2022/09/10 11:48:30;;;;;;;2.58;0.88;;;23.10;58.40;;;;;;5091405;28;20043;-76
2022/09/10 11:51:14;;;;;;;1.20;0.80;;;23.10;58.60;;;;;;5091821;28;20031;-75
2022/09/10 11:53:40;;;;;;;1.77;0.82;;;23.00;58.60;;;;;;5091116;28;20107;-77
2022/09/10 11:56:28;;;;;;;0.55;0.55;;;23.20;57.80;;;;;;5091977;28;20542;-76
2022/09/10 11:59:31;;;;;;;1.58;0.85;;;23.20;57.40;;;;;;5091406;28;20123;-77
2022/09/10 12:02:25;;;;;;;1.88;0.90;;;23.30;58.10;;;;;;5040082;28;20036;-77
2022/09/10 12:05:14;;;;;;;0.80;0.75;;;23.10;57.60;;;;;;5091198;28;20035;-77
2022/09/10 12:08:13;;;;;;;1.88;0.80;;;23.10;58.40;;;;;;5091324;28;20103;-78
2022/09/10 12:11:24;;;;;;;2.20;1.23;;;23.10;58.10;;;;;;5091274;28;20093;-78
2022/09/10 12:13:51;;;;;;;1.63;0.82;;;23.00;58.20;;;;;;5067979;28;20032;-77
2022/09/10 12:16:37;;;;;;;1.52;1.17;;;22.80;58.20;;;;;;5091400;28;20511;-78
2022/09/10 12:19:18;;;;;;;3.50;1.08;;;22.70;58.70;;;;;;5091156;28;20044;-78
2022/09/10 12:21:48;;;;;;;;;;;22.70;58.60;;;;;;5091291;28;20457;-77
2022/09/10 12:24:25;;;;;;;1.73;1.10;;;22.60;59.20;;;;;;5091486;28;20256;-78
2022/09/10 12:26:53;;;;;;;1.25;1.13;;;22.60;59.00;;;;;;5091961;28;20035;-77
2022/09/10 12:29:36;;;;;;;1.83;1.02;;;22.50;59.10;;;;;;5091047;28;20056;-78
2022/09/10 12:32:08;;;;;;;2.67;1.10;;;22.50;59.30;;;;;;5091710;28;20455;-77
2022/09/10 12:34:35;;;;;;;1.20;0.90;;;22.50;59.50;;;;;;5091207;28;20020;-76
2022/09/10 12:37:01;;;;;;;1.15;0.95;;;22.40;59.80;;;;;;5091217;28;20028;-76
2022/09/10 12:39:27;;;;;;;1.95;0.70;;;22.30;60.40;;;;;;5090015;28;20429;-77
2022/09/10 12:41:59;;;;;;;1.00;0.75;;;22.20;61.00;;;;;;5091504;28;20029;-77
2022/09/10 12:44:27;;;;;;;1.27;0.73;;;22.20;60.40;;;;;;5090962;28;20025;-78
2022/09/10 12:47:15;;;;;;;2.80;0.70;;;22.20;61.10;;;;;;5090954;28;20020;-77
2022/09/10 12:49:48;;;;;;;0.55;0.55;;;22.10;61.20;;;;;;5072721;28;20040;-77
2022/09/10 12:52:30;;;;;;;0.60;0.60;;;22.00;61.70;;;;;;5091575;28;20021;-78
2022/09/10 12:55:05;;;;;;;1.50;0.80;;;21.90;62.30;;;;;;5091517;28;20056;-78
2022/09/10 12:57:51;;;;;;;0.93;0.77;;;21.80;63.20;;;;;;5090194;28;20413;-78
2022/09/10 13:00:23;;;;;;;1.00;0.70;;;21.70;63.80;;;;;;5090997;28;20551;-78
2022/09/10 13:03:13;;;;;;;2.67;0.80;;;21.60;65.10;;;;;;5090638;28;20019;-76
2022/09/10 13:05:49;;;;;;;1.45;0.70;;;21.70;66.00;;;;;;5090112;28;20020;-77
2022/09/10 13:08:14;;;;;;;8.52;1.63;;;21.70;67.70;;;;;;5090942;28;20024;-77
2022/09/10 13:11:02;;;;;;;1.20;0.80;;;21.70;67.30;;;;;;5090563;28;20478;-78